sensor_id;sensor_type;location;lat;lon;timestamp;P1;durP1;ratioP1;P2;durP2;ratioP2
2522;SDS011;1272;53.332;9.860;2023-04-19T00:00:18;7.30;;;6.30;;
2522;SDS011;1272;53.332;9.860;2023-04-19T00:02:45;7.57;;;5.87;;
2522;SDS011;1272;53.332;9.860;2023-04-19T00:05:13;8.67;;;6.80;;
2522;SDS011;1272;53.332;9.860;2023-04-19T00:07:39;7.80;;;6.20;;
2522;SDS011;1272;53.332;9.860;2023-04-19T00:10:05;6.53;;;5.73;;
2522;SDS011;1272;53.332;9.860;2023-04-19T00:12:31;8.90;;;6.30;;
2522;SDS011;1272;53.332;9.860;2023-04-19T00:14:57;8.90;;;6.20;;
2522;SDS011;1272;53.332;9.860;2023-04-19T00:17:23;9.60;;;6.17;;
2522;SDS011;1272;53.332;9.860;2023-04-19T00:19:48;6.73;;;6.13;;
2522;SDS011;1272;53.332;9.860;2023-04-19T00:22:14;6.10;;;5.50;;
2522;SDS011;1272;53.332;9.860;2023-04-19T00:24:41;8.70;;;6.10;;
2522;SDS011;1272;53.332;9.860;2023-04-19T00:27:07;6.90;;;5.63;;
2522;SDS011;1272;53.332;9.860;2023-04-19T00:29:32;7.77;;;5.97;;
2522;SDS011;1272;53.332;9.860;2023-04-19T00:31:58;6.63;;;5.83;;
2522;SDS011;1272;53.332;9.860;2023-04-19T00:34:24;12.30;;;6.20;;
2522;SDS011;1272;53.332;9.860;2023-04-19T00:36:50;8.83;;;5.03;;
2522;SDS011;1272;53.332;9.860;2023-04-19T00:39:15;10.07;;;6.77;;
2522;SDS011;1272;53.332;9.860;2023-04-19T00:41:42;10.30;;;6.53;;
2522;SDS011;1272;53.332;9.860;2023-04-19T00:44:08;6.20;;;5.60;;
2522;SDS011;1272;53.332;9.860;2023-04-19T00:46:35;7.40;;;6.43;;
2522;SDS011;1272;53.332;9.860;2023-04-19T00:49:01;7.10;;;6.30;;
2522;SDS011;1272;53.332;9.860;2023-04-19T00:51:27;8.27;;;7.10;;
2522;SDS011;1272;53.332;9.860;2023-04-19T00:53:53;10.23;;;6.57;;
2522;SDS011;1272;53.332;9.860;2023-04-19T00:56:19;6.50;;;5.73;;
2522;SDS011;1272;53.332;9.860;2023-04-19T00:58:48;12.00;;;7.10;;
2522;SDS011;1272;53.332;9.860;2023-04-19T01:01:13;6.27;;;5.67;;
2522;SDS011;1272;53.332;9.860;2023-04-19T01:03:39;6.70;;;5.27;;
2522;SDS011;1272;53.332;9.860;2023-04-19T01:06:05;6.37;;;5.73;;
2522;SDS011;1272;53.332;9.860;2023-04-19T01:08:32;6.33;;;5.73;;
2522;SDS011;1272;53.332;9.860;2023-04-19T01:10:58;7.20;;;6.00;;
2522;SDS011;1272;53.332;9.860;2023-04-19T01:13:23;7.10;;;5.83;;
2522;SDS011;1272;53.332;9.860;2023-04-19T01:15:49;7.13;;;6.40;;
2522;SDS011;1272;53.332;9.860;2023-04-19T01:18:16;7.70;;;5.90;;
2522;SDS011;1272;53.332;9.860;2023-04-19T01:20:43;9.17;;;5.90;;
2522;SDS011;1272;53.332;9.860;2023-04-19T01:23:09;7.57;;;5.83;;
2522;SDS011;1272;53.332;9.860;2023-04-19T01:25:36;6.10;;;5.50;;
2522;SDS011;1272;53.332;9.860;2023-04-19T01:28:02;7.67;;;6.27;;
2522;SDS011;1272;53.332;9.860;2023-04-19T01:30:28;6.63;;;5.30;;
2522;SDS011;1272;53.332;9.860;2023-04-19T01:32:53;8.30;;;5.50;;
2522;SDS011;1272;53.332;9.860;2023-04-19T01:35:19;6.93;;;5.60;;
2522;SDS011;1272;53.332;9.860;2023-04-19T01:37:45;6.10;;;5.23;;
2522;SDS011;1272;53.332;9.860;2023-04-19T01:40:11;6.57;;;5.07;;
2522;SDS011;1272;53.332;9.860;2023-04-19T01:42:37;5.40;;;4.90;;
2522;SDS011;1272;53.332;9.860;2023-04-19T01:45:02;6.43;;;5.83;;
2522;SDS011;1272;53.332;9.860;2023-04-19T01:47:29;5.40;;;4.90;;
2522;SDS011;1272;53.332;9.860;2023-04-19T01:49:54;7.50;;;5.30;;
2522;SDS011;1272;53.332;9.860;2023-04-19T01:52:20;7.40;;;5.23;;
2522;SDS011;1272;53.332;9.860;2023-04-19T01:54:46;6.23;;;5.03;;
2522;SDS011;1272;53.332;9.860;2023-04-19T01:57:11;6.00;;;5.50;;
2522;SDS011;1272;53.332;9.860;2023-04-19T01:59:37;5.90;;;5.30;;
2522;SDS011;1272;53.332;9.860;2023-04-19T02:02:05;6.47;;;5.37;;
2522;SDS011;1272;53.332;9.860;2023-04-19T02:04:32;5.57;;;5.07;;
2522;SDS011;1272;53.332;9.860;2023-04-19T02:06:58;4.43;;;4.03;;
2522;SDS011;1272;53.332;9.860;2023-04-19T02:09:24;8.00;;;5.30;;
2522;SDS011;1272;53.332;9.860;2023-04-19T02:11:49;11.70;;;4.87;;
2522;SDS011;1272;53.332;9.860;2023-04-19T02:14:15;5.27;;;4.77;;
2522;SDS011;1272;53.332;9.860;2023-04-19T02:16:41;5.90;;;4.60;;
2522;SDS011;1272;53.332;9.860;2023-04-19T02:19:07;5.97;;;4.20;;
2522;SDS011;1272;53.332;9.860;2023-04-19T02:21:33;6.60;;;4.60;;
2522;SDS011;1272;53.332;9.860;2023-04-19T02:23:58;6.73;;;4.53;;
2522;SDS011;1272;53.332;9.860;2023-04-19T02:26:25;4.80;;;4.40;;
2522;SDS011;1272;53.332;9.860;2023-04-19T02:28:51;4.60;;;4.07;;
2522;SDS011;1272;53.332;9.860;2023-04-19T02:31:17;5.60;;;5.10;;
2522;SDS011;1272;53.332;9.860;2023-04-19T02:33:42;4.83;;;4.33;;
2522;SDS011;1272;53.332;9.860;2023-04-19T02:36:10;8.17;;;5.23;;
2522;SDS011;1272;53.332;9.860;2023-04-19T02:38:36;4.57;;;4.20;;
2522;SDS011;1272;53.332;9.860;2023-04-19T02:41:01;4.60;;;4.13;;
2522;SDS011;1272;53.332;9.860;2023-04-19T02:43:28;5.20;;;4.70;;
2522;SDS011;1272;53.332;9.860;2023-04-19T02:45:54;6.67;;;4.60;;
2522;SDS011;1272;53.332;9.860;2023-04-19T02:48:20;4.70;;;4.10;;
2522;SDS011;1272;53.332;9.860;2023-04-19T02:50:46;5.47;;;4.13;;
2522;SDS011;1272;53.332;9.860;2023-04-19T02:53:11;5.63;;;5.13;;
2522;SDS011;1272;53.332;9.860;2023-04-19T02:55:40;9.33;;;3.77;;
2522;SDS011;1272;53.332;9.860;2023-04-19T02:58:06;6.90;;;4.10;;
2522;SDS011;1272;53.332;9.860;2023-04-19T03:00:35;4.50;;;4.03;;
2522;SDS011;1272;53.332;9.860;2023-04-19T03:03:01;5.43;;;4.43;;
2522;SDS011;1272;53.332;9.860;2023-04-19T03:05:28;3.80;;;3.47;;
2522;SDS011;1272;53.332;9.860;2023-04-19T03:07:54;4.53;;;3.80;;
2522;SDS011;1272;53.332;9.860;2023-04-19T03:10:20;5.07;;;4.67;;
2522;SDS011;1272;53.332;9.860;2023-04-19T03:12:45;5.57;;;4.47;;
2522;SDS011;1272;53.332;9.860;2023-04-19T03:15:11;4.57;;;4.13;;
2522;SDS011;1272;53.332;9.860;2023-04-19T03:17:37;5.10;;;4.47;;
2522;SDS011;1272;53.332;9.860;2023-04-19T03:20:03;4.13;;;3.80;;
2522;SDS011;1272;53.332;9.860;2023-04-19T03:22:33;4.63;;;4.20;;
2522;SDS011;1272;53.332;9.860;2023-04-19T03:24:59;4.03;;;3.67;;
2522;SDS011;1272;53.332;9.860;2023-04-19T03:27:25;3.70;;;3.50;;
2522;SDS011;1272;53.332;9.860;2023-04-19T03:29:50;3.80;;;3.50;;
2522;SDS011;1272;53.332;9.860;2023-04-19T03:32:16;4.77;;;4.10;;
2522;SDS011;1272;53.332;9.860;2023-04-19T03:34:42;4.80;;;3.63;;
2522;SDS011;1272;53.332;9.860;2023-04-19T03:37:08;3.90;;;3.60;;
2522;SDS011;1272;53.332;9.860;2023-04-19T03:39:33;3.57;;;3.27;;
2522;SDS011;1272;53.332;9.860;2023-04-19T03:41:59;4.27;;;3.87;;
2522;SDS011;1272;53.332;9.860;2023-04-19T03:44:25;3.90;;;3.60;;
2522;SDS011;1272;53.332;9.860;2023-04-19T03:46:51;4.40;;;3.10;;
2522;SDS011;1272;53.332;9.860;2023-04-19T03:49:17;4.20;;;3.80;;
2522;SDS011;1272;53.332;9.860;2023-04-19T03:51:43;5.43;;;5.00;;
2522;SDS011;1272;53.332;9.860;2023-04-19T03:54:08;5.27;;;3.10;;
2522;SDS011;1272;53.332;9.860;2023-04-19T03:56:34;3.37;;;3.17;;
2522;SDS011;1272;53.332;9.860;2023-04-19T03:59:00;5.70;;;3.37;;
2522;SDS011;1272;53.332;9.860;2023-04-19T04:01:26;3.87;;;3.40;;
2522;SDS011;1272;53.332;9.860;2023-04-19T04:03:52;3.43;;;3.13;;
2522;SDS011;1272;53.332;9.860;2023-04-19T04:06:18;5.53;;;3.40;;
2522;SDS011;1272;53.332;9.860;2023-04-19T04:08:43;4.07;;;3.77;;
2522;SDS011;1272;53.332;9.860;2023-04-19T04:11:10;5.23;;;3.90;;
2522;SDS011;1272;53.332;9.860;2023-04-19T04:13:35;6.30;;;3.67;;
2522;SDS011;1272;53.332;9.860;2023-04-19T04:16:01;4.07;;;3.67;;
2522;SDS011;1272;53.332;9.860;2023-04-19T04:18:27;4.00;;;3.70;;
2522;SDS011;1272;53.332;9.860;2023-04-19T04:20:53;6.00;;;3.80;;
2522;SDS011;1272;53.332;9.860;2023-04-19T04:23:19;3.77;;;3.47;;
2522;SDS011;1272;53.332;9.860;2023-04-19T04:25:58;8.03;;;4.43;;
2522;SDS011;1272;53.332;9.860;2023-04-19T04:28:25;3.60;;;3.30;;
2522;SDS011;1272;53.332;9.860;2023-04-19T04:30:51;6.30;;;3.27;;
2522;SDS011;1272;53.332;9.860;2023-04-19T04:33:21;3.33;;;3.13;;
2522;SDS011;1272;53.332;9.860;2023-04-19T04:35:51;3.60;;;2.97;;
2522;SDS011;1272;53.332;9.860;2023-04-19T04:38:17;4.17;;;3.10;;
2522;SDS011;1272;53.332;9.860;2023-04-19T04:40:48;3.63;;;3.27;;
2522;SDS011;1272;53.332;9.860;2023-04-19T04:43:18;3.30;;;3.00;;
2522;SDS011;1272;53.332;9.860;2023-04-19T04:45:45;3.43;;;3.17;;
2522;SDS011;1272;53.332;9.860;2023-04-19T04:48:11;3.43;;;3.13;;
2522;SDS011;1272;53.332;9.860;2023-04-19T04:50:37;8.60;;;3.40;;
2522;SDS011;1272;53.332;9.860;2023-04-19T04:53:03;4.37;;;2.93;;
2522;SDS011;1272;53.332;9.860;2023-04-19T04:55:28;6.00;;;3.60;;
2522;SDS011;1272;53.332;9.860;2023-04-19T04:57:56;3.70;;;3.50;;
2522;SDS011;1272;53.332;9.860;2023-04-19T05:00:22;4.00;;;3.00;;
2522;SDS011;1272;53.332;9.860;2023-04-19T05:02:48;3.63;;;3.37;;
2522;SDS011;1272;53.332;9.860;2023-04-19T05:05:14;3.50;;;3.10;;
2522;SDS011;1272;53.332;9.860;2023-04-19T05:07:39;4.40;;;2.93;;
2522;SDS011;1272;53.332;9.860;2023-04-19T05:10:06;4.90;;;3.63;;
2522;SDS011;1272;53.332;9.860;2023-04-19T05:12:32;3.30;;;3.00;;
2522;SDS011;1272;53.332;9.860;2023-04-19T05:14:58;4.67;;;3.17;;
2522;SDS011;1272;53.332;9.860;2023-04-19T05:17:24;8.47;;;2.67;;
2522;SDS011;1272;53.332;9.860;2023-04-19T05:19:49;2.90;;;2.57;;
2522;SDS011;1272;53.332;9.860;2023-04-19T05:22:15;4.17;;;2.70;;
2522;SDS011;1272;53.332;9.860;2023-04-19T05:24:41;3.73;;;2.67;;
2522;SDS011;1272;53.332;9.860;2023-04-19T05:27:07;4.03;;;2.80;;
2522;SDS011;1272;53.332;9.860;2023-04-19T05:29:33;4.53;;;2.73;;
2522;SDS011;1272;53.332;9.860;2023-04-19T05:31:59;8.03;;;2.57;;
2522;SDS011;1272;53.332;9.860;2023-04-19T05:34:25;4.30;;;2.83;;
2522;SDS011;1272;53.332;9.860;2023-04-19T05:36:50;2.50;;;2.30;;
2522;SDS011;1272;53.332;9.860;2023-04-19T05:39:16;6.20;;;2.70;;
2522;SDS011;1272;53.332;9.860;2023-04-19T05:41:42;2.50;;;2.30;;
2522;SDS011;1272;53.332;9.860;2023-04-19T05:44:08;6.00;;;2.40;;
2522;SDS011;1272;53.332;9.860;2023-04-19T05:46:33;2.67;;;2.57;;
2522;SDS011;1272;53.332;9.860;2023-04-19T05:49:00;3.20;;;2.10;;
2522;SDS011;1272;53.332;9.860;2023-04-19T05:51:26;2.60;;;2.40;;
2522;SDS011;1272;53.332;9.860;2023-04-19T05:53:52;3.83;;;2.10;;
2522;SDS011;1272;53.332;9.860;2023-04-19T05:56:18;6.00;;;2.40;;
2522;SDS011;1272;53.332;9.860;2023-04-19T05:58:44;2.30;;;2.17;;
2522;SDS011;1272;53.332;9.860;2023-04-19T06:01:10;3.83;;;2.20;;
2522;SDS011;1272;53.332;9.860;2023-04-19T06:03:36;2.13;;;2.00;;
2522;SDS011;1272;53.332;9.860;2023-04-19T06:06:01;3.13;;;2.13;;
2522;SDS011;1272;53.332;9.860;2023-04-19T06:08:27;3.33;;;1.93;;
2522;SDS011;1272;53.332;9.860;2023-04-19T06:10:53;2.30;;;2.10;;
2522;SDS011;1272;53.332;9.860;2023-04-19T06:13:20;3.13;;;2.00;;
2522;SDS011;1272;53.332;9.860;2023-04-19T06:15:46;2.93;;;1.90;;
2522;SDS011;1272;53.332;9.860;2023-04-19T06:18:12;4.90;;;2.00;;
2522;SDS011;1272;53.332;9.860;2023-04-19T06:20:38;2.70;;;1.60;;
2522;SDS011;1272;53.332;9.860;2023-04-19T06:23:04;3.30;;;2.10;;
2522;SDS011;1272;53.332;9.860;2023-04-19T06:25:31;4.20;;;1.93;;
2522;SDS011;1272;53.332;9.860;2023-04-19T06:27:57;2.43;;;2.23;;
2522;SDS011;1272;53.332;9.860;2023-04-19T06:30:23;3.30;;;1.87;;
2522;SDS011;1272;53.332;9.860;2023-04-19T06:32:48;2.60;;;1.77;;
2522;SDS011;1272;53.332;9.860;2023-04-19T06:35:14;2.87;;;1.93;;
2522;SDS011;1272;53.332;9.860;2023-04-19T06:37:40;2.03;;;1.83;;
2522;SDS011;1272;53.332;9.860;2023-04-19T06:40:06;4.43;;;1.90;;
2522;SDS011;1272;53.332;9.860;2023-04-19T06:42:33;1.73;;;1.63;;
2522;SDS011;1272;53.332;9.860;2023-04-19T06:44:59;1.73;;;1.63;;
2522;SDS011;1272;53.332;9.860;2023-04-19T06:47:25;1.67;;;1.57;;
2522;SDS011;1272;53.332;9.860;2023-04-19T06:49:51;1.63;;;1.30;;
2522;SDS011;1272;53.332;9.860;2023-04-19T06:52:16;2.37;;;1.20;;
2522;SDS011;1272;53.332;9.860;2023-04-19T06:54:45;3.63;;;1.67;;
2522;SDS011;1272;53.332;9.860;2023-04-19T06:57:12;1.60;;;1.50;;
2522;SDS011;1272;53.332;9.860;2023-04-19T06:59:38;3.27;;;2.50;;
2522;SDS011;1272;53.332;9.860;2023-04-19T07:02:05;2.07;;;1.50;;
2522;SDS011;1272;53.332;9.860;2023-04-19T07:04:31;1.77;;;1.67;;
2522;SDS011;1272;53.332;9.860;2023-04-19T07:06:56;1.50;;;1.40;;
2522;SDS011;1272;53.332;9.860;2023-04-19T07:09:22;1.60;;;1.50;;
2522;SDS011;1272;53.332;9.860;2023-04-19T07:11:48;2.00;;;1.90;;
2522;SDS011;1272;53.332;9.860;2023-04-19T07:14:15;1.87;;;1.77;;
2522;SDS011;1272;53.332;9.860;2023-04-19T07:16:43;2.40;;;1.50;;
2522;SDS011;1272;53.332;9.860;2023-04-19T07:19:10;2.37;;;2.13;;
2522;SDS011;1272;53.332;9.860;2023-04-19T07:21:36;2.60;;;1.63;;
2522;SDS011;1272;53.332;9.860;2023-04-19T07:24:03;2.07;;;1.87;;
2522;SDS011;1272;53.332;9.860;2023-04-19T07:26:30;1.70;;;1.57;;
2522;SDS011;1272;53.332;9.860;2023-04-19T07:28:56;1.70;;;1.60;;
2522;SDS011;1272;53.332;9.860;2023-04-19T07:31:22;2.70;;;1.90;;
2522;SDS011;1272;53.332;9.860;2023-04-19T07:33:49;1.20;;;1.20;;
2522;SDS011;1272;53.332;9.860;2023-04-19T07:36:15;1.80;;;1.60;;
2522;SDS011;1272;53.332;9.860;2023-04-19T07:38:41;1.70;;;1.40;;
2522;SDS011;1272;53.332;9.860;2023-04-19T07:41:07;1.60;;;1.50;;
2522;SDS011;1272;53.332;9.860;2023-04-19T07:43:33;1.97;;;1.77;;
2522;SDS011;1272;53.332;9.860;2023-04-19T07:45:59;1.53;;;1.40;;
2522;SDS011;1272;53.332;9.860;2023-04-19T07:48:25;1.53;;;1.43;;
2522;SDS011;1272;53.332;9.860;2023-04-19T07:50:51;1.50;;;1.40;;
2522;SDS011;1272;53.332;9.860;2023-04-19T07:53:17;6.20;;;1.57;;
2522;SDS011;1272;53.332;9.860;2023-04-19T07:55:43;2.43;;;1.70;;
2522;SDS011;1272;53.332;9.860;2023-04-19T07:58:08;1.50;;;1.40;;
2522;SDS011;1272;53.332;9.860;2023-04-19T08:00:35;1.43;;;1.33;;
2522;SDS011;1272;53.332;9.860;2023-04-19T08:03:01;1.50;;;1.40;;
2522;SDS011;1272;53.332;9.860;2023-04-19T08:05:28;2.40;;;1.37;;
2522;SDS011;1272;53.332;9.860;2023-04-19T08:07:54;2.07;;;1.60;;
2522;SDS011;1272;53.332;9.860;2023-04-19T08:10:20;1.30;;;1.20;;
2522;SDS011;1272;53.332;9.860;2023-04-19T08:12:47;2.00;;;1.60;;
2522;SDS011;1272;53.332;9.860;2023-04-19T08:15:14;1.73;;;1.53;;
2522;SDS011;1272;53.332;9.860;2023-04-19T08:17:40;1.37;;;1.27;;
2522;SDS011;1272;53.332;9.860;2023-04-19T08:20:08;1.40;;;1.40;;
2522;SDS011;1272;53.332;9.860;2023-04-19T08:22:35;1.87;;;1.30;;
2522;SDS011;1272;53.332;9.860;2023-04-19T08:25:01;1.80;;;1.70;;
2522;SDS011;1272;53.332;9.860;2023-04-19T08:27:27;6.10;;;1.40;;
2522;SDS011;1272;53.332;9.860;2023-04-19T08:29:53;2.20;;;1.33;;
2522;SDS011;1272;53.332;9.860;2023-04-19T08:32:18;1.53;;;1.13;;
2522;SDS011;1272;53.332;9.860;2023-04-19T08:34:44;3.73;;;2.40;;
2522;SDS011;1272;53.332;9.860;2023-04-19T08:37:10;1.47;;;1.37;;
2522;SDS011;1272;53.332;9.860;2023-04-19T08:39:36;1.50;;;1.50;;
2522;SDS011;1272;53.332;9.860;2023-04-19T08:42:03;1.83;;;1.30;;
2522;SDS011;1272;53.332;9.860;2023-04-19T08:44:30;1.43;;;1.33;;
2522;SDS011;1272;53.332;9.860;2023-04-19T08:46:57;2.00;;;1.80;;
2522;SDS011;1272;53.332;9.860;2023-04-19T08:49:25;2.90;;;1.40;;
2522;SDS011;1272;53.332;9.860;2023-04-19T08:51:52;2.40;;;1.33;;
2522;SDS011;1272;53.332;9.860;2023-04-19T08:54:19;1.60;;;1.50;;
2522;SDS011;1272;53.332;9.860;2023-04-19T08:56:46;1.87;;;1.77;;
2522;SDS011;1272;53.332;9.860;2023-04-19T08:59:12;2.67;;;2.00;;
2522;SDS011;1272;53.332;9.860;2023-04-19T09:01:38;1.33;;;1.23;;
2522;SDS011;1272;53.332;9.860;2023-04-19T09:04:04;1.80;;;1.70;;
2522;SDS011;1272;53.332;9.860;2023-04-19T09:06:35;1.50;;;1.40;;
2522;SDS011;1272;53.332;9.860;2023-04-19T09:09:14;2.00;;;1.63;;
2522;SDS011;1272;53.332;9.860;2023-04-19T09:11:44;1.60;;;1.50;;
2522;SDS011;1272;53.332;9.860;2023-04-19T09:14:10;2.10;;;1.67;;
2522;SDS011;1272;53.332;9.860;2023-04-19T09:16:38;2.00;;;1.90;;
2522;SDS011;1272;53.332;9.860;2023-04-19T09:19:04;1.60;;;1.50;;
2522;SDS011;1272;53.332;9.860;2023-04-19T09:21:30;2.60;;;1.50;;
2522;SDS011;1272;53.332;9.860;2023-04-19T09:23:57;1.60;;;1.50;;
2522;SDS011;1272;53.332;9.860;2023-04-19T09:26:23;1.50;;;1.40;;
2522;SDS011;1272;53.332;9.860;2023-04-19T09:29:00;4.57;;;1.80;;
2522;SDS011;1272;53.332;9.860;2023-04-19T09:31:27;2.00;;;1.87;;
2522;SDS011;1272;53.332;9.860;2023-04-19T09:33:54;2.00;;;1.90;;
2522;SDS011;1272;53.332;9.860;2023-04-19T09:36:30;4.80;;;1.77;;
2522;SDS011;1272;53.332;9.860;2023-04-19T09:38:58;2.07;;;1.80;;
2522;SDS011;1272;53.332;9.860;2023-04-19T09:41:24;1.80;;;1.70;;
2522;SDS011;1272;53.332;9.860;2023-04-19T09:43:51;2.40;;;1.70;;
2522;SDS011;1272;53.332;9.860;2023-04-19T09:46:30;1.90;;;1.80;;
2522;SDS011;1272;53.332;9.860;2023-04-19T09:49:14;3.70;;;2.07;;
2522;SDS011;1272;53.332;9.860;2023-04-19T09:51:43;2.10;;;2.00;;
2522;SDS011;1272;53.332;9.860;2023-04-19T09:54:10;2.50;;;1.77;;
2522;SDS011;1272;53.332;9.860;2023-04-19T09:56:37;3.23;;;2.03;;
2522;SDS011;1272;53.332;9.860;2023-04-19T09:59:04;2.17;;;2.07;;
2522;SDS011;1272;53.332;9.860;2023-04-19T10:01:33;1.77;;;1.67;;
2522;SDS011;1272;53.332;9.860;2023-04-19T10:04:00;2.30;;;2.10;;
2522;SDS011;1272;53.332;9.860;2023-04-19T10:06:30;1.93;;;1.80;;
2522;SDS011;1272;53.332;9.860;2023-04-19T10:08:56;1.67;;;1.57;;
2522;SDS011;1272;53.332;9.860;2023-04-19T10:11:25;2.70;;;2.07;;
2522;SDS011;1272;53.332;9.860;2023-04-19T10:13:56;3.80;;;1.67;;
2522;SDS011;1272;53.332;9.860;2023-04-19T10:16:25;4.33;;;1.90;;
2522;SDS011;1272;53.332;9.860;2023-04-19T10:18:51;3.47;;;2.47;;
2522;SDS011;1272;53.332;9.860;2023-04-19T10:21:18;4.13;;;2.80;;
2522;SDS011;1272;53.332;9.860;2023-04-19T10:23:44;2.60;;;1.87;;
2522;SDS011;1272;53.332;9.860;2023-04-19T10:26:11;1.90;;;1.80;;
2522;SDS011;1272;53.332;9.860;2023-04-19T10:28:36;1.80;;;1.70;;
2522;SDS011;1272;53.332;9.860;2023-04-19T10:31:03;2.37;;;2.17;;
2522;SDS011;1272;53.332;9.860;2023-04-19T10:33:30;7.80;;;2.00;;
2522;SDS011;1272;53.332;9.860;2023-04-19T10:36:00;3.67;;;1.70;;
2522;SDS011;1272;53.332;9.860;2023-04-19T10:41:05;1.80;;;1.70;;
2522;SDS011;1272;53.332;9.860;2023-04-19T10:43:36;2.40;;;2.03;;
2522;SDS011;1272;53.332;9.860;2023-04-19T10:48:31;4.30;;;2.10;;
2522;SDS011;1272;53.332;9.860;2023-04-19T10:56:13;5.23;;;1.93;;
2522;SDS011;1272;53.332;9.860;2023-04-19T10:59:14;9.37;;;2.70;;
2522;SDS011;1272;53.332;9.860;2023-04-19T11:06:37;3.60;;;2.60;;
2522;SDS011;1272;53.332;9.860;2023-04-19T11:11:47;7.67;;;2.30;;
2522;SDS011;1272;53.332;9.860;2023-04-19T11:14:13;2.20;;;2.00;;
2522;SDS011;1272;53.332;9.860;2023-04-19T11:16:40;4.80;;;2.83;;
2522;SDS011;1272;53.332;9.860;2023-04-19T11:19:05;5.50;;;3.00;;
2522;SDS011;1272;53.332;9.860;2023-04-19T11:21:31;7.03;;;2.77;;
2522;SDS011;1272;53.332;9.860;2023-04-19T11:24:09;2.90;;;2.70;;
2522;SDS011;1272;53.332;9.860;2023-04-19T11:26:35;5.13;;;2.27;;
2522;SDS011;1272;53.332;9.860;2023-04-19T11:29:01;7.67;;;3.00;;
2522;SDS011;1272;53.332;9.860;2023-04-19T11:31:30;2.60;;;2.40;;
2522;SDS011;1272;53.332;9.860;2023-04-19T11:33:57;3.83;;;2.70;;
2522;SDS011;1272;53.332;9.860;2023-04-19T11:36:24;2.67;;;2.47;;
2522;SDS011;1272;53.332;9.860;2023-04-19T11:38:51;2.60;;;2.40;;
2522;SDS011;1272;53.332;9.860;2023-04-19T11:41:17;3.97;;;3.00;;
2522;SDS011;1272;53.332;9.860;2023-04-19T11:43:43;2.50;;;2.37;;
2522;SDS011;1272;53.332;9.860;2023-04-19T11:46:11;4.10;;;2.37;;
2522;SDS011;1272;53.332;9.860;2023-04-19T11:48:37;2.30;;;2.20;;
2522;SDS011;1272;53.332;9.860;2023-04-19T11:51:04;2.40;;;2.20;;
2522;SDS011;1272;53.332;9.860;2023-04-19T11:53:30;2.80;;;2.70;;
2522;SDS011;1272;53.332;9.860;2023-04-19T11:58:23;2.60;;;2.23;;
2522;SDS011;1272;53.332;9.860;2023-04-19T12:00:49;3.83;;;2.50;;
2522;SDS011;1272;53.332;9.860;2023-04-19T12:03:15;3.03;;;2.33;;
2522;SDS011;1272;53.332;9.860;2023-04-19T12:08:30;2.90;;;2.70;;
2522;SDS011;1272;53.332;9.860;2023-04-19T12:11:00;3.17;;;2.40;;
2522;SDS011;1272;53.332;9.860;2023-04-19T12:13:27;6.83;;;2.43;;
2522;SDS011;1272;53.332;9.860;2023-04-19T12:15:55;1.73;;;1.60;;
2522;SDS011;1272;53.332;9.860;2023-04-19T12:18:21;2.17;;;1.93;;
2522;SDS011;1272;53.332;9.860;2023-04-19T12:20:50;2.20;;;2.10;;
2522;SDS011;1272;53.332;9.860;2023-04-19T12:23:17;2.20;;;2.10;;
2522;SDS011;1272;53.332;9.860;2023-04-19T12:25:44;2.20;;;2.00;;
2522;SDS011;1272;53.332;9.860;2023-04-19T12:28:11;2.50;;;2.30;;
2522;SDS011;1272;53.332;9.860;2023-04-19T12:30:37;2.07;;;1.97;;
2522;SDS011;1272;53.332;9.860;2023-04-19T12:33:07;2.53;;;2.10;;
2522;SDS011;1272;53.332;9.860;2023-04-19T12:35:33;2.40;;;2.23;;
2522;SDS011;1272;53.332;9.860;2023-04-19T12:38:00;3.70;;;2.20;;
2522;SDS011;1272;53.332;9.860;2023-04-19T12:40:26;4.07;;;2.20;;
2522;SDS011;1272;53.332;9.860;2023-04-19T12:42:53;3.30;;;2.10;;
2522;SDS011;1272;53.332;9.860;2023-04-19T12:45:19;3.77;;;2.47;;
2522;SDS011;1272;53.332;9.860;2023-04-19T12:47:46;2.60;;;2.40;;
2522;SDS011;1272;53.332;9.860;2023-04-19T12:50:12;3.37;;;2.30;;
2522;SDS011;1272;53.332;9.860;2023-04-19T12:52:39;3.03;;;2.27;;
2522;SDS011;1272;53.332;9.860;2023-04-19T12:55:05;5.43;;;2.47;;
2522;SDS011;1272;53.332;9.860;2023-04-19T12:57:32;2.80;;;1.77;;
2522;SDS011;1272;53.332;9.860;2023-04-19T12:59:57;3.93;;;2.53;;
2522;SDS011;1272;53.332;9.860;2023-04-19T13:02:23;5.83;;;2.70;;
2522;SDS011;1272;53.332;9.860;2023-04-19T13:04:49;2.83;;;2.60;;
2522;SDS011;1272;53.332;9.860;2023-04-19T13:07:15;3.03;;;2.73;;
2522;SDS011;1272;53.332;9.860;2023-04-19T13:09:40;3.10;;;2.70;;
2522;SDS011;1272;53.332;9.860;2023-04-19T13:12:06;2.47;;;2.27;;
2522;SDS011;1272;53.332;9.860;2023-04-19T13:14:33;2.63;;;2.30;;
2522;SDS011;1272;53.332;9.860;2023-04-19T13:16:58;3.70;;;2.10;;
2522;SDS011;1272;53.332;9.860;2023-04-19T13:19:24;9.50;;;2.23;;
2522;SDS011;1272;53.332;9.860;2023-04-19T13:21:50;4.20;;;2.27;;
2522;SDS011;1272;53.332;9.860;2023-04-19T13:24:16;2.47;;;2.30;;
2522;SDS011;1272;53.332;9.860;2023-04-19T13:26:42;1.67;;;1.50;;
2522;SDS011;1272;53.332;9.860;2023-04-19T13:29:10;2.80;;;2.20;;
2522;SDS011;1272;53.332;9.860;2023-04-19T13:31:35;2.23;;;2.13;;
2522;SDS011;1272;53.332;9.860;2023-04-19T13:34:01;2.33;;;2.23;;
2522;SDS011;1272;53.332;9.860;2023-04-19T13:36:27;3.57;;;2.63;;
2522;SDS011;1272;53.332;9.860;2023-04-19T13:38:53;5.13;;;2.80;;
2522;SDS011;1272;53.332;9.860;2023-04-19T13:41:19;2.80;;;2.10;;
2522;SDS011;1272;53.332;9.860;2023-04-19T13:43:45;9.80;;;2.30;;
2522;SDS011;1272;53.332;9.860;2023-04-19T13:46:11;5.73;;;3.03;;
2522;SDS011;1272;53.332;9.860;2023-04-19T13:48:36;4.27;;;1.90;;
2522;SDS011;1272;53.332;9.860;2023-04-19T13:51:02;6.63;;;2.50;;
2522;SDS011;1272;53.332;9.860;2023-04-19T13:53:28;2.30;;;2.20;;
2522;SDS011;1272;53.332;9.860;2023-04-19T13:55:54;2.43;;;2.10;;
2522;SDS011;1272;53.332;9.860;2023-04-19T13:58:20;2.20;;;1.97;;
2522;SDS011;1272;53.332;9.860;2023-04-19T14:00:46;2.40;;;2.20;;
2522;SDS011;1272;53.332;9.860;2023-04-19T14:03:12;5.40;;;2.53;;
2522;SDS011;1272;53.332;9.860;2023-04-19T14:05:38;1.80;;;1.70;;
2522;SDS011;1272;53.332;9.860;2023-04-19T14:08:04;3.77;;;2.33;;
2522;SDS011;1272;53.332;9.860;2023-04-19T14:10:29;2.03;;;1.93;;
2522;SDS011;1272;53.332;9.860;2023-04-19T14:12:55;2.70;;;2.37;;
2522;SDS011;1272;53.332;9.860;2023-04-19T14:15:21;2.80;;;2.60;;
2522;SDS011;1272;53.332;9.860;2023-04-19T14:17:48;2.17;;;2.00;;
2522;SDS011;1272;53.332;9.860;2023-04-19T14:20:17;2.10;;;1.90;;
2522;SDS011;1272;53.332;9.860;2023-04-19T14:22:44;2.73;;;2.53;;
2522;SDS011;1272;53.332;9.860;2023-04-19T14:25:09;2.03;;;1.83;;
2522;SDS011;1272;53.332;9.860;2023-04-19T14:27:36;6.20;;;2.33;;
2522;SDS011;1272;53.332;9.860;2023-04-19T14:30:02;4.10;;;2.20;;
2522;SDS011;1272;53.332;9.860;2023-04-19T14:32:29;3.30;;;1.90;;
2522;SDS011;1272;53.332;9.860;2023-04-19T14:34:55;2.20;;;1.97;;
2522;SDS011;1272;53.332;9.860;2023-04-19T14:37:21;2.37;;;2.00;;
2522;SDS011;1272;53.332;9.860;2023-04-19T14:39:48;2.03;;;1.90;;
2522;SDS011;1272;53.332;9.860;2023-04-19T14:42:14;2.13;;;2.03;;
2522;SDS011;1272;53.332;9.860;2023-04-19T14:44:42;9.20;;;2.67;;
2522;SDS011;1272;53.332;9.860;2023-04-19T14:47:09;2.30;;;1.93;;
2522;SDS011;1272;53.332;9.860;2023-04-19T14:49:35;2.80;;;2.70;;
2522;SDS011;1272;53.332;9.860;2023-04-19T14:52:01;1.97;;;1.77;;
2522;SDS011;1272;53.332;9.860;2023-04-19T14:54:27;2.60;;;2.20;;
2522;SDS011;1272;53.332;9.860;2023-04-19T14:56:53;4.97;;;2.03;;
2522;SDS011;1272;53.332;9.860;2023-04-19T14:59:19;3.43;;;1.70;;
2522;SDS011;1272;53.332;9.860;2023-04-19T15:01:45;2.50;;;2.10;;
2522;SDS011;1272;53.332;9.860;2023-04-19T15:04:11;2.50;;;2.30;;
2522;SDS011;1272;53.332;9.860;2023-04-19T15:06:37;4.07;;;2.50;;
2522;SDS011;1272;53.332;9.860;2023-04-19T15:09:02;3.53;;;2.90;;
2522;SDS011;1272;53.332;9.860;2023-04-19T15:11:29;2.37;;;2.17;;
2522;SDS011;1272;53.332;9.860;2023-04-19T15:13:54;2.27;;;2.10;;
2522;SDS011;1272;53.332;9.860;2023-04-19T15:16:20;2.90;;;2.63;;
2522;SDS011;1272;53.332;9.860;2023-04-19T15:18:46;3.37;;;2.60;;
2522;SDS011;1272;53.332;9.860;2023-04-19T15:21:11;3.23;;;2.67;;
2522;SDS011;1272;53.332;9.860;2023-04-19T15:23:37;4.70;;;2.30;;
2522;SDS011;1272;53.332;9.860;2023-04-19T15:26:03;2.10;;;2.00;;
2522;SDS011;1272;53.332;9.860;2023-04-19T15:28:29;7.67;;;2.00;;
2522;SDS011;1272;53.332;9.860;2023-04-19T15:31:00;5.60;;;2.33;;
2522;SDS011;1272;53.332;9.860;2023-04-19T15:33:28;3.00;;;2.20;;